createdAt,value
2023-01-13T00:00:41.034Z,52.1
2023-01-13T00:02:24.403Z,52
2023-01-13T00:04:07.771Z,52
2023-01-13T00:05:51.183Z,52
2023-01-13T00:07:34.568Z,52
2023-01-13T00:09:17.946Z,52
2023-01-13T00:12:44.493Z,52
2023-01-13T00:14:27.821Z,52
2023-01-13T00:16:11.215Z,52.1
2023-01-13T00:17:54.608Z,52.1
2023-01-13T00:19:38.000Z,52
2023-01-13T00:21:21.406Z,52
2023-01-13T00:23:04.843Z,52.1
2023-01-13T00:24:48.203Z,52.2
2023-01-13T00:26:31.700Z,52.2
2023-01-13T00:29:58.074Z,52.1
2023-01-13T00:31:41.521Z,52.1
2023-01-13T00:33:24.861Z,52.1
2023-01-13T00:35:08.256Z,52.1
2023-01-13T00:36:51.645Z,52.1
2023-01-13T00:38:35.042Z,52.1
2023-01-13T00:40:18.448Z,52
2023-01-13T00:42:01.849Z,52
2023-01-13T00:47:11.102Z,52.1
2023-01-13T00:48:54.491Z,52.1
2023-01-13T00:50:37.883Z,52.1
2023-01-13T00:52:21.287Z,52.1
2023-01-13T00:54:04.674Z,52.1
2023-01-13T00:55:48.079Z,52.1
2023-01-13T00:57:31.461Z,52.1
2023-01-13T00:59:14.862Z,52.1
2023-01-13T01:00:58.264Z,52.1
2023-01-13T01:04:24.734Z,52.1
2023-01-13T01:06:08.139Z,52.1
2023-01-13T01:07:51.533Z,52.1
2023-01-13T01:09:35.066Z,52.1
2023-01-13T01:11:18.329Z,52.1
2023-01-13T01:13:01.787Z,52.1
2023-01-13T01:14:45.194Z,52.1
2023-01-13T01:16:28.585Z,52.1
2023-01-13T01:18:11.902Z,52.2
2023-01-13T01:21:38.387Z,52.1
2023-01-13T01:23:21.777Z,52.2
2023-01-13T01:25:05.159Z,52.1
2023-01-13T01:26:48.604Z,52.1
2023-01-13T01:28:31.976Z,52.1
2023-01-13T01:30:15.367Z,52.1
2023-01-13T01:31:58.760Z,52.1
2023-01-13T01:33:42.168Z,52.1
2023-01-13T01:35:25.545Z,52.1
2023-01-13T01:38:52.048Z,52.1
2023-01-13T01:40:35.415Z,52.1
2023-01-13T01:42:18.814Z,52.1
2023-01-13T01:44:02.225Z,52.1
2023-01-13T01:45:45.618Z,52.2
2023-01-13T01:47:29.023Z,52.1
2023-01-13T01:49:12.452Z,52.1
2023-01-13T01:50:55.790Z,52.1
2023-01-13T01:56:05.038Z,52.1
2023-01-13T01:57:48.440Z,52.1
2023-01-13T01:59:31.860Z,52.1
2023-01-13T02:01:15.236Z,52.1
2023-01-13T02:02:58.627Z,52.1
2023-01-13T02:04:42.033Z,52.1
2023-01-13T02:06:25.411Z,52
2023-01-13T02:08:08.822Z,52.1
2023-01-13T02:09:52.216Z,52.1
2023-01-13T02:13:18.678Z,52.1
2023-01-13T02:15:02.098Z,52
2023-01-13T02:16:45.468Z,52.1
2023-01-13T02:18:28.882Z,52.1
2023-01-13T02:20:12.257Z,52
2023-01-13T02:21:55.698Z,52.1
2023-01-13T02:23:39.065Z,52.1
2023-01-13T02:25:22.464Z,52.1
2023-01-13T02:30:31.716Z,52.1
2023-01-13T02:32:15.093Z,52.1
2023-01-13T02:33:58.505Z,52.1
2023-01-13T02:35:41.886Z,52.1
2023-01-13T02:37:25.279Z,52.1
2023-01-13T02:39:08.699Z,52.1
2023-01-13T02:40:52.088Z,52.1
2023-01-13T02:42:35.537Z,52.1
2023-01-13T02:47:44.712Z,52.2
2023-01-13T02:49:28.118Z,52.2
2023-01-13T02:51:11.513Z,52.1
2023-01-13T02:52:54.900Z,52.1
2023-01-13T02:54:38.301Z,52.1
2023-01-13T02:56:21.693Z,52.1
2023-01-13T02:58:05.097Z,52.1
2023-01-13T02:59:48.496Z,52.1
2023-01-13T03:03:15.207Z,52.2
2023-01-13T03:04:58.367Z,52.1
2023-01-13T03:06:41.757Z,52.1
2023-01-13T03:08:25.152Z,52.2
2023-01-13T03:10:08.604Z,52.2
2023-01-13T03:11:51.939Z,52.2
2023-01-13T03:13:35.332Z,52.2
2023-01-13T03:15:18.746Z,52.2
2023-01-13T03:20:27.980Z,52.2
2023-01-13T03:22:11.407Z,52.2
2023-01-13T03:23:54.810Z,52.2
2023-01-13T03:25:38.171Z,52.2
2023-01-13T03:27:21.573Z,52.2
2023-01-13T03:29:04.962Z,52.2
2023-01-13T03:30:48.369Z,52.2
2023-01-13T03:32:31.765Z,52.2
2023-01-13T03:37:40.992Z,52.2
2023-01-13T03:39:24.415Z,52.2
2023-01-13T03:41:07.789Z,52.2
2023-01-13T03:42:51.186Z,52.2
2023-01-13T03:44:34.573Z,52.2
2023-01-13T03:46:17.992Z,52.2
2023-01-13T03:48:01.370Z,52.2
2023-01-13T03:49:44.772Z,52.2
2023-01-13T03:53:11.250Z,52.2
2023-01-13T03:54:54.660Z,52.2
2023-01-13T03:56:38.034Z,52.2
2023-01-13T03:58:21.565Z,52.2
2023-01-13T04:00:04.870Z,52.2
2023-01-13T04:01:48.288Z,52.2
2023-01-13T04:03:31.616Z,52.2
2023-01-13T04:05:15.019Z,52.2
2023-01-13T04:08:41.496Z,52.2
2023-01-13T04:10:24.885Z,52.2
2023-01-13T04:12:08.283Z,52.2
2023-01-13T04:13:51.678Z,52.2
2023-01-13T04:15:35.065Z,52.2
2023-01-13T04:17:18.487Z,52.2
2023-01-13T04:19:01.868Z,52.2
2023-01-13T04:20:45.304Z,52.2
2023-01-13T04:24:11.741Z,52.2
2023-01-13T04:25:55.125Z,52.3
2023-01-13T04:27:38.545Z,52.3
2023-01-13T04:29:21.926Z,52.3
2023-01-13T04:31:05.322Z,52.3
2023-01-13T04:32:48.722Z,52.3
2023-01-13T04:34:32.107Z,52.2
2023-01-13T04:36:15.503Z,52.3
2023-01-13T04:39:41.972Z,52.3
2023-01-13T04:41:25.380Z,52.3
2023-01-13T04:43:08.772Z,52.3
2023-01-13T04:44:52.156Z,52.3
2023-01-13T04:46:35.558Z,52.3
2023-01-13T04:48:18.966Z,52.3
2023-01-13T04:50:02.472Z,52.3
2023-01-13T04:51:45.750Z,52.3
2023-01-13T04:56:54.987Z,52.3
2023-01-13T04:58:38.387Z,52.3
2023-01-13T05:00:21.784Z,52.3
2023-01-13T05:02:05.192Z,52.3
2023-01-13T05:03:48.577Z,52.3
2023-01-13T05:05:31.979Z,52.3
2023-01-13T05:07:15.385Z,52.3
2023-01-13T05:08:58.760Z,52.3
2023-01-13T05:12:25.239Z,52.3
2023-01-13T05:14:08.630Z,52.3
2023-01-13T05:15:52.047Z,52.3
2023-01-13T05:17:35.420Z,52.3
2023-01-13T05:19:18.832Z,52.3
2023-01-13T05:21:02.260Z,52.3
2023-01-13T05:22:45.632Z,52.3
2023-01-13T05:24:29.044Z,52.3
2023-01-13T05:26:12.760Z,52.3
2023-01-13T05:27:56.121Z,52.3
2023-01-13T05:29:39.504Z,52.3
2023-01-13T05:31:22.929Z,52.3
2023-01-13T05:33:06.303Z,52.3
2023-01-13T05:34:49.691Z,52.3
2023-01-13T05:36:33.111Z,52.3
2023-01-13T05:38:16.515Z,52.3
2023-01-13T05:41:42.966Z,52.3
2023-01-13T05:43:26.357Z,52.3
2023-01-13T05:45:09.753Z,52.3
2023-01-13T05:46:53.162Z,52.3
2023-01-13T05:48:36.561Z,52.3
2023-01-13T05:50:19.975Z,52.3
2023-01-13T05:52:03.404Z,52.3
2023-01-13T05:53:46.743Z,52.3
2023-01-13T05:58:55.990Z,52.3
2023-01-13T06:00:39.372Z,52.3
2023-01-13T06:02:22.783Z,52.3
2023-01-13T06:04:06.172Z,52.4
2023-01-13T06:05:49.572Z,52.3
2023-01-13T06:07:33.001Z,52.3
2023-01-13T06:09:16.376Z,52.3
2023-01-13T06:10:59.764Z,52.3
2023-01-13T06:16:08.996Z,52.3
2023-01-13T06:17:52.400Z,52.3
2023-01-13T06:19:35.794Z,52.4
2023-01-13T06:21:19.199Z,52.3
2023-01-13T06:23:02.600Z,52.3
2023-01-13T06:24:45.979Z,52.4
2023-01-13T06:26:29.385Z,52.3
2023-01-13T06:28:12.763Z,52.4
2023-01-13T06:31:39.244Z,52.3
2023-01-13T06:33:22.640Z,52.4
2023-01-13T06:35:06.049Z,52.4
2023-01-13T06:36:49.429Z,52.4
2023-01-13T06:38:32.933Z,52.4
2023-01-13T06:40:16.235Z,52.4
2023-01-13T06:41:59.645Z,52.4
2023-01-13T06:43:43.009Z,52.4
2023-01-13T06:48:52.251Z,52.4
2023-01-13T06:50:35.721Z,52.4
2023-01-13T06:52:19.050Z,52.4
2023-01-13T06:54:02.628Z,52.4
2023-01-13T06:55:45.850Z,52.4
2023-01-13T06:57:29.244Z,52.4
2023-01-13T06:59:12.639Z,52.3
2023-01-13T07:00:56.024Z,52.3
2023-01-13T07:04:22.504Z,52.2
2023-01-13T07:06:05.968Z,52.1
2023-01-13T07:07:49.360Z,52.2
2023-01-13T07:09:32.697Z,52.1
2023-01-13T07:11:16.078Z,52.1
2023-01-13T07:12:59.494Z,52
2023-01-13T07:14:42.915Z,52
2023-01-13T07:16:26.270Z,52
2023-01-13T07:19:52.749Z,52
2023-01-13T07:21:36.143Z,51.9
2023-01-13T07:23:19.544Z,51.9
2023-01-13T07:25:02.947Z,52
2023-01-13T07:26:46.340Z,51.9
2023-01-13T07:28:29.839Z,51.9
2023-01-13T07:30:13.175Z,51.9
2023-01-13T07:31:56.520Z,51.9
2023-01-13T07:33:39.921Z,51.9
2023-01-13T07:35:23.616Z,51.9
2023-01-13T07:37:07.095Z,51.9
2023-01-13T07:38:50.404Z,51.9
2023-01-13T07:40:33.885Z,51.8
2023-01-13T07:42:17.205Z,51.9
2023-01-13T07:44:00.606Z,52
2023-01-13T07:45:44.031Z,52
2023-01-13T07:47:27.390Z,52
2023-01-13T07:49:10.790Z,52
2023-01-13T07:50:54.512Z,52
2023-01-13T07:52:37.893Z,52
2023-01-13T07:54:21.294Z,52.1
2023-01-13T07:56:04.681Z,52.1
2023-01-13T07:57:48.201Z,52.1
2023-01-13T07:59:31.483Z,52.1
2023-01-13T08:01:14.961Z,52
2023-01-13T08:02:58.317Z,52.1
2023-01-13T08:06:24.839Z,52.2
2023-01-13T08:08:08.231Z,52.2
2023-01-13T08:09:51.582Z,52.2
2023-01-13T08:11:34.925Z,52.2
2023-01-13T08:13:18.339Z,52.2
2023-01-13T08:15:01.754Z,52.2
2023-01-13T08:16:45.129Z,52.2
2023-01-13T08:18:28.514Z,52.3
2023-01-13T08:23:37.783Z,52.4
2023-01-13T08:25:21.214Z,52.2
2023-01-13T08:27:04.625Z,52.2
2023-01-13T08:28:47.972Z,52.2
2023-01-13T08:30:31.359Z,52.4
2023-01-13T08:32:14.733Z,52.4
2023-01-13T08:33:58.164Z,52.3
2023-01-13T08:35:41.651Z,52.4
2023-01-13T08:39:08.019Z,52.4
2023-01-13T08:40:51.412Z,52.5
2023-01-13T08:42:34.812Z,52.4
2023-01-13T08:44:18.182Z,52.3
2023-01-13T08:46:01.633Z,52.5
2023-01-13T08:47:45.036Z,52.3
2023-01-13T08:49:28.393Z,52.2
2023-01-13T08:51:11.805Z,52.2
2023-01-13T08:54:38.341Z,52.3
2023-01-13T08:56:21.673Z,52.3
2023-01-13T08:58:05.063Z,52.3
2023-01-13T08:59:48.536Z,52.3
2023-01-13T09:01:31.904Z,52.2
2023-01-13T09:03:15.479Z,52.2
2023-01-13T09:04:58.709Z,52.2
2023-01-13T09:06:42.228Z,52.2
2023-01-13T09:10:08.587Z,52.2
2023-01-13T09:11:51.968Z,52.3
2023-01-13T09:13:35.329Z,52.1
2023-01-13T09:15:18.736Z,52.1
2023-01-13T09:17:02.154Z,52.1
2023-01-13T09:18:45.510Z,52.1
2023-01-13T09:20:28.895Z,52.1
2023-01-13T09:22:12.344Z,52.1
2023-01-13T09:25:38.789Z,52.1
2023-01-13T09:27:22.204Z,52.1
2023-01-13T09:29:05.543Z,52.1
2023-01-13T09:30:48.949Z,52.1
2023-01-13T09:32:32.391Z,52.1
2023-01-13T09:34:15.735Z,52.1
2023-01-13T09:35:59.143Z,52
2023-01-13T09:37:42.589Z,52
2023-01-13T09:41:09.015Z,52
2023-01-13T09:42:52.391Z,52
2023-01-13T09:44:35.818Z,52
2023-01-13T09:46:19.194Z,52
2023-01-13T09:48:02.684Z,52
2023-01-13T09:49:45.986Z,52
2023-01-13T09:51:29.540Z,52
2023-01-13T09:53:12.779Z,52
2023-01-13T09:56:39.260Z,51.9
2023-01-13T09:58:22.641Z,52
2023-01-13T10:00:06.044Z,51.9
2023-01-13T10:01:49.428Z,51.9
2023-01-13T10:03:32.887Z,51.9
2023-01-13T10:05:16.239Z,51.9
2023-01-13T10:06:59.623Z,51.9
2023-01-13T10:08:43.043Z,51.9
2023-01-13T10:12:09.538Z,51.9
2023-01-13T10:13:52.900Z,51.9
2023-01-13T10:15:36.346Z,51.9
2023-01-13T10:17:19.687Z,51.8
2023-01-13T10:19:03.167Z,51.8
2023-01-13T10:20:46.533Z,51.8
2023-01-13T10:22:29.870Z,51.8
2023-01-13T10:24:13.279Z,51.9
2023-01-13T10:27:39.762Z,52
2023-01-13T10:29:23.265Z,51.9
2023-01-13T10:31:06.550Z,52
2023-01-13T10:32:49.930Z,52
2023-01-13T10:34:33.342Z,52
2023-01-13T10:36:16.751Z,51.9
2023-01-13T10:38:00.121Z,52
2023-01-13T10:39:43.516Z,52
2023-01-13T10:43:10.033Z,52.1
2023-01-13T10:44:53.377Z,52.2
2023-01-13T10:46:36.853Z,52.1
2023-01-13T10:48:20.233Z,52.2
2023-01-13T10:50:03.650Z,52.2
2023-01-13T10:51:47.118Z,52.1
2023-01-13T10:53:30.366Z,52.1
2023-01-13T10:55:13.753Z,52.1
2023-01-13T10:58:40.261Z,52.5
2023-01-13T11:00:23.637Z,52.3
2023-01-13T11:02:07.023Z,52.1
2023-01-13T11:03:50.472Z,52.3
2023-01-13T11:05:33.826Z,52.4
2023-01-13T11:07:17.207Z,52.2
2023-01-13T11:09:00.732Z,52.2
2023-01-13T11:10:44.051Z,52.2
2023-01-13T11:15:53.262Z,52.3
2023-01-13T11:17:36.687Z,52.5
2023-01-13T11:19:20.056Z,52.3
2023-01-13T11:21:03.448Z,52.3
2023-01-13T11:22:46.841Z,52.3
2023-01-13T11:24:30.231Z,52.2
2023-01-13T11:26:13.660Z,52.2
2023-01-13T11:27:57.029Z,52.3
2023-01-13T11:29:40.424Z,52.3
2023-01-13T11:31:24.117Z,52.4
2023-01-13T11:33:07.572Z,52.4
2023-01-13T11:34:50.913Z,52.3
2023-01-13T11:36:34.330Z,52.3
2023-01-13T11:38:17.729Z,52.2
2023-01-13T11:40:01.113Z,52.1
2023-01-13T11:41:44.513Z,52.1
2023-01-13T11:43:27.894Z,52.1
2023-01-13T11:45:11.318Z,52.1
2023-01-13T11:46:54.998Z,52.1
2023-01-13T11:48:38.384Z,52
2023-01-13T11:50:21.785Z,52
2023-01-13T11:52:05.182Z,52.1
2023-01-13T11:53:48.587Z,52.4
2023-01-13T11:55:31.980Z,52.4
2023-01-13T11:57:15.425Z,52.3
2023-01-13T11:58:58.760Z,52.3
2023-01-13T12:00:42.165Z,52.5
2023-01-13T12:02:25.882Z,52.3
2023-01-13T12:04:09.255Z,52.2
2023-01-13T12:05:52.721Z,52.2
2023-01-13T12:07:36.071Z,52.3
2023-01-13T12:09:19.455Z,52.2
2023-01-13T12:11:02.984Z,52.2
2023-01-13T12:12:46.253Z,52.1
2023-01-13T12:14:29.662Z,52.1
2023-01-13T12:19:38.881Z,52.2
2023-01-13T12:21:22.294Z,52.1
2023-01-13T12:23:05.688Z,52.1
2023-01-13T12:24:49.073Z,52
2023-01-13T12:26:32.468Z,52
2023-01-13T12:28:15.862Z,52.1
2023-01-13T12:29:59.261Z,52.1
2023-01-13T12:31:42.665Z,52.1
2023-01-13T12:35:09.127Z,52.2
2023-01-13T12:36:52.523Z,52.5
2023-01-13T12:38:35.939Z,52.5
2023-01-13T12:40:19.312Z,52.4
2023-01-13T12:42:02.771Z,52.1
2023-01-13T12:43:46.104Z,52.1
2023-01-13T12:45:29.671Z,52.1
2023-01-13T12:47:12.902Z,52.1
2023-01-13T12:50:39.383Z,52.2
2023-01-13T12:52:22.783Z,52.2
2023-01-13T12:54:06.175Z,52.2
2023-01-13T12:55:49.567Z,52.2
2023-01-13T12:57:32.988Z,52.2
2023-01-13T12:59:16.347Z,52.2
2023-01-13T13:00:59.758Z,52.2
2023-01-13T13:02:43.141Z,52.2
2023-01-13T13:06:09.684Z,52.5
2023-01-13T13:07:53.061Z,52.9
2023-01-13T13:09:36.471Z,52.6
2023-01-13T13:11:19.800Z,52.5
2023-01-13T13:13:03.223Z,52.4
2023-01-13T13:14:46.604Z,52.3
2023-01-13T13:16:29.986Z,52.3
2023-01-13T13:18:13.384Z,52.3
2023-01-13T13:19:56.788Z,52.3
2023-01-13T13:21:40.495Z,52.3
2023-01-13T13:23:23.875Z,52.3
2023-01-13T13:25:07.283Z,52.3
2023-01-13T13:26:50.688Z,52.4
2023-01-13T13:28:34.099Z,52.6
2023-01-13T13:30:17.474Z,52.7
2023-01-13T13:32:00.900Z,52.4
2023-01-13T13:33:44.272Z,52.6
2023-01-13T13:37:10.755Z,52.8
2023-01-13T13:38:54.136Z,52.5
2023-01-13T13:40:37.595Z,52.4
2023-01-13T13:42:20.936Z,52.4
2023-01-13T13:44:04.343Z,52.5
2023-01-13T13:45:47.712Z,52.4
2023-01-13T13:47:31.116Z,52.4
2023-01-13T13:49:14.558Z,52.4
2023-01-13T13:50:58.226Z,52.4
2023-01-13T13:52:41.672Z,52.4
2023-01-13T13:54:25.006Z,52.4
2023-01-13T13:56:08.514Z,52.4
2023-01-13T13:57:51.827Z,52.3
2023-01-13T13:59:35.245Z,52.4
2023-01-13T14:01:18.598Z,52.3
2023-01-13T14:03:01.988Z,52.3
2023-01-13T14:06:28.464Z,52.3
2023-01-13T14:08:11.829Z,52.3
2023-01-13T14:09:55.245Z,52.3
2023-01-13T14:11:38.631Z,52.3
2023-01-13T14:13:22.015Z,52.2
2023-01-13T14:15:05.406Z,52.3
2023-01-13T14:16:48.783Z,52.3
2023-01-13T14:18:32.199Z,52.2
2023-01-13T14:23:41.436Z,52.3
2023-01-13T14:25:24.826Z,52.2
2023-01-13T14:27:08.219Z,52.1
2023-01-13T14:28:51.694Z,52.1
2023-01-13T14:30:35.018Z,52.1
2023-01-13T14:32:18.392Z,52
2023-01-13T14:34:01.817Z,52
2023-01-13T14:35:45.189Z,52
2023-01-13T14:40:54.418Z,52
2023-01-13T14:42:37.891Z,52
2023-01-13T14:44:21.217Z,51.9
2023-01-13T14:46:04.616Z,51.9
2023-01-13T14:47:48.030Z,51.9
2023-01-13T14:49:31.399Z,51.9
2023-01-13T14:51:14.825Z,52
2023-01-13T14:52:58.187Z,52.1
2023-01-13T14:54:41.594Z,52
2023-01-13T14:58:08.066Z,51.9
2023-01-13T15:03:18.267Z,52
2023-01-13T15:05:01.697Z,52
2023-01-13T15:06:45.029Z,52
2023-01-13T15:08:28.434Z,52
2023-01-13T15:10:11.832Z,51.9
2023-01-13T15:13:38.320Z,52
2023-01-13T15:15:21.683Z,52
2023-01-13T15:17:05.170Z,52.2
2023-01-13T15:18:48.557Z,52.1
2023-01-13T15:20:31.887Z,52.3
2023-01-13T15:22:15.290Z,52.4
2023-01-13T15:23:58.678Z,52.3
2023-01-13T15:25:42.081Z,52.6
2023-01-13T15:29:08.538Z,52.8
2023-01-13T15:30:51.931Z,52.9
2023-01-13T15:32:35.350Z,52.9
2023-01-13T15:34:18.754Z,52.9
2023-01-13T15:36:02.143Z,52.9
2023-01-13T15:37:45.527Z,53
2023-01-13T15:39:29.062Z,53
2023-01-13T15:41:12.320Z,52.9
2023-01-13T15:44:38.858Z,52.8
2023-01-13T15:46:22.176Z,52.8
2023-01-13T15:48:05.574Z,52.9
2023-01-13T15:49:49.002Z,52.8
2023-01-13T15:51:32.447Z,52.8
2023-01-13T15:53:15.766Z,52.8
2023-01-13T15:54:59.166Z,52.8
2023-01-13T15:56:42.583Z,52.8
2023-01-13T16:00:09.034Z,52.7
2023-01-13T16:01:52.447Z,52.8
2023-01-13T16:03:35.841Z,52.8
2023-01-13T16:05:19.231Z,52.7
2023-01-13T16:07:02.619Z,52.7
2023-01-13T16:08:46.031Z,52.8
2023-01-13T16:10:29.414Z,52.7
2023-01-13T16:12:12.814Z,52.9
2023-01-13T16:15:39.302Z,52.9
2023-01-13T16:17:22.690Z,52.8
2023-01-13T16:19:06.086Z,52.8
2023-01-13T16:20:49.492Z,53.1
2023-01-13T16:22:32.898Z,53
2023-01-13T16:24:16.297Z,52.9
2023-01-13T16:25:59.678Z,53.5
2023-01-13T16:27:43.081Z,53.4
2023-01-13T16:31:09.615Z,52.8
2023-01-13T16:32:53.025Z,52.9
2023-01-13T16:34:36.420Z,53
2023-01-13T16:36:19.761Z,53.1
2023-01-13T16:38:03.198Z,53
2023-01-13T16:39:46.547Z,53.3
2023-01-13T16:41:29.952Z,53.3
2023-01-13T16:43:13.359Z,53.2
2023-01-13T16:44:57.110Z,53.4
2023-01-13T16:46:40.507Z,53.1
2023-01-13T16:48:23.847Z,53.3
2023-01-13T16:50:07.262Z,53.5
2023-01-13T16:51:50.781Z,53.6
2023-01-13T16:53:34.122Z,53.3
2023-01-13T16:55:17.442Z,53.2
2023-01-13T16:57:00.882Z,53.3
2023-01-13T17:00:27.310Z,53.2
2023-01-13T17:02:10.776Z,53.1
2023-01-13T17:03:54.116Z,53.4
2023-01-13T17:05:37.517Z,53.3
2023-01-13T17:07:20.932Z,53
2023-01-13T17:09:04.313Z,53
2023-01-13T17:10:47.792Z,52.9
2023-01-13T17:15:56.950Z,52.7
2023-01-13T17:17:40.378Z,52.7
2023-01-13T17:19:23.752Z,52.6
2023-01-13T17:21:07.148Z,52.5
2023-01-13T17:22:50.524Z,52.5
2023-01-13T17:24:33.958Z,52.5
2023-01-13T17:26:17.330Z,52.5
2023-01-13T17:28:00.743Z,52.4
2023-01-13T17:31:27.223Z,52.5
2023-01-13T17:33:10.602Z,52.5
2023-01-13T17:34:53.992Z,52.5
2023-01-13T17:36:37.393Z,52.5
2023-01-13T17:38:20.797Z,52.4
2023-01-13T17:40:04.202Z,52.6
2023-01-13T17:41:47.608Z,52.7
2023-01-13T17:43:30.981Z,52.5
2023-01-13T17:46:57.439Z,53.2
2023-01-13T17:48:40.837Z,53.2
2023-01-13T17:50:24.224Z,53.1
2023-01-13T17:52:07.643Z,53.1
2023-01-13T17:53:51.054Z,53.3
2023-01-13T17:55:34.425Z,53.2
2023-01-13T17:57:17.830Z,53.2
2023-01-13T17:59:01.219Z,53
2023-01-13T18:02:27.768Z,52.9
2023-01-13T18:04:11.094Z,52.8
2023-01-13T18:05:54.495Z,52.7
2023-01-13T18:07:37.871Z,52.6
2023-01-13T18:09:21.288Z,52.6
2023-01-13T18:11:04.656Z,52.8
2023-01-13T18:12:48.057Z,52.9
2023-01-13T18:14:31.460Z,52.7
2023-01-13T18:19:40.705Z,52.5
2023-01-13T18:21:24.107Z,52.5
2023-01-13T18:23:07.500Z,52.5
2023-01-13T18:24:50.933Z,52.4
2023-01-13T18:26:34.299Z,52.4
2023-01-13T18:28:17.681Z,52.4
2023-01-13T18:30:01.072Z,52.4
2023-01-13T18:31:44.474Z,52.4
2023-01-13T18:33:28.172Z,52.5
2023-01-13T18:35:11.562Z,52.6
2023-01-13T18:36:54.977Z,52.7
2023-01-13T18:38:38.434Z,52.6
2023-01-13T18:40:21.756Z,52.6
2023-01-13T18:42:05.249Z,52.6
2023-01-13T18:43:48.561Z,52.4
2023-01-13T18:45:31.994Z,52.4
2023-01-13T18:48:58.418Z,52.3
2023-01-13T18:50:41.835Z,52.3
2023-01-13T18:52:25.202Z,52.3
2023-01-13T18:54:08.605Z,52.4
2023-01-13T18:55:52.107Z,52.4
2023-01-13T18:57:35.405Z,52.3
2023-01-13T18:59:18.849Z,52.2
2023-01-13T19:01:02.239Z,52.2
2023-01-13T19:04:28.668Z,52.2
2023-01-13T19:06:12.048Z,52.2
2023-01-13T19:07:55.443Z,52.1
2023-01-13T19:09:38.848Z,52.1
2023-01-13T19:11:22.247Z,52.1
2023-01-13T19:13:05.666Z,52.1
2023-01-13T19:14:49.052Z,52.1
2023-01-13T19:16:32.491Z,52.1
2023-01-13T19:18:16.130Z,52.1
2023-01-13T19:19:59.532Z,52.1
2023-01-13T19:21:42.926Z,52
2023-01-13T19:23:26.359Z,52
2023-01-13T19:25:09.750Z,52
2023-01-13T19:26:53.167Z,52
2023-01-13T19:28:36.525Z,52
2023-01-13T19:30:19.912Z,51.9
2023-01-13T19:33:46.391Z,51.9
2023-01-13T19:35:29.797Z,51.9
2023-01-13T19:37:13.163Z,51.9
2023-01-13T19:38:56.575Z,51.9
2023-01-13T19:40:39.999Z,51.8
2023-01-13T19:42:23.374Z,51.8
2023-01-13T19:44:06.754Z,51.9
2023-01-13T19:49:16.005Z,51.8
2023-01-13T19:50:59.409Z,51.8
2023-01-13T19:52:42.789Z,51.8
2023-01-13T19:54:26.299Z,52.1
2023-01-13T19:56:09.587Z,52.2
2023-01-13T19:57:52.986Z,52.1
2023-01-13T19:59:36.403Z,52
2023-01-13T20:01:19.889Z,51.9
2023-01-13T20:03:03.488Z,51.9
2023-01-13T20:04:46.885Z,51.9
2023-01-13T20:06:30.279Z,51.9
2023-01-13T20:08:13.691Z,51.8
2023-01-13T20:09:57.081Z,51.8
2023-01-13T20:11:40.458Z,51.8
2023-01-13T20:13:23.877Z,51.7
2023-01-13T20:15:07.262Z,51.7
2023-01-13T20:20:16.575Z,51.6
2023-01-13T20:21:59.964Z,51.8
2023-01-13T20:23:43.292Z,51.8
2023-01-13T20:25:26.695Z,51.8
2023-01-13T20:27:10.095Z,51.9
2023-01-13T20:28:53.588Z,51.8
2023-01-13T20:30:36.899Z,51.8
2023-01-13T20:32:20.377Z,51.7
2023-01-13T20:35:46.747Z,51.7
2023-01-13T20:37:30.131Z,51.6
2023-01-13T20:39:13.531Z,51.6
2023-01-13T20:40:56.933Z,51.6
2023-01-13T20:42:40.348Z,51.6
2023-01-13T20:44:23.725Z,51.5
2023-01-13T20:46:07.146Z,51.8
2023-01-13T20:47:50.517Z,51.9
2023-01-13T20:49:34.242Z,51.9
2023-01-13T20:51:17.626Z,52
2023-01-13T20:53:01.023Z,51.9
2023-01-13T20:54:44.420Z,51.8
2023-01-13T20:56:27.799Z,51.9
2023-01-13T20:58:11.283Z,51.9
2023-01-13T20:59:54.608Z,51.8
2023-01-13T21:01:37.987Z,51.9
2023-01-13T21:05:04.499Z,51.9
2023-01-13T21:06:47.871Z,51.9
2023-01-13T21:08:31.274Z,51.8
2023-01-13T21:10:14.677Z,51.7
2023-01-13T21:11:58.060Z,51.6
2023-01-13T21:13:41.446Z,51.6
2023-01-13T21:15:24.900Z,51.6
2023-01-13T21:17:08.241Z,51.6
2023-01-13T21:22:17.481Z,51.5
2023-01-13T21:24:00.886Z,51.5
2023-01-13T21:25:44.299Z,51.5
2023-01-13T21:27:27.679Z,51.5
2023-01-13T21:29:11.123Z,51.5
2023-01-13T21:30:54.473Z,51.5
2023-01-13T21:32:37.860Z,51.5
2023-01-13T21:34:21.256Z,51.5
2023-01-13T21:36:04.650Z,51.5
2023-01-13T21:37:48.388Z,51.5
2023-01-13T21:39:31.756Z,51.5
2023-01-13T21:41:15.156Z,51.5
2023-01-13T21:42:58.565Z,51.5
2023-01-13T21:44:41.941Z,51.5
2023-01-13T21:46:25.342Z,51.6
2023-01-13T21:48:08.754Z,51.5
2023-01-13T21:49:52.129Z,51.5
2023-01-13T21:53:18.612Z,51.7
2023-01-13T21:55:02.023Z,51.8
2023-01-13T21:56:45.398Z,51.8
2023-01-13T21:58:28.781Z,51.8
2023-01-13T22:00:12.193Z,51.8
2023-01-13T22:01:55.599Z,51.7
2023-01-13T22:03:38.975Z,51.6
2023-01-13T22:05:22.384Z,51.7
2023-01-13T22:10:31.613Z,51.7
2023-01-13T22:12:15.013Z,51.7
2023-01-13T22:13:58.410Z,51.7
2023-01-13T22:15:41.821Z,51.6
2023-01-13T22:17:25.213Z,51.7
2023-01-13T22:19:08.716Z,51.7
2023-01-13T22:20:51.992Z,51.7
2023-01-13T22:22:35.394Z,51.7
2023-01-13T22:27:44.640Z,51.8
2023-01-13T22:29:28.043Z,51.9
2023-01-13T22:31:11.423Z,51.9
2023-01-13T22:32:54.825Z,51.9
2023-01-13T22:34:38.216Z,51.9
2023-01-13T22:36:21.695Z,51.8
2023-01-13T22:38:05.080Z,51.8
2023-01-13T22:39:48.409Z,51.9
2023-01-13T22:43:14.881Z,51.9
2023-01-13T22:44:58.283Z,51.9
2023-01-13T22:46:41.673Z,51.8
2023-01-13T22:48:25.089Z,51.7
2023-01-13T22:50:08.452Z,51.7
2023-01-13T22:51:51.861Z,51.6
2023-01-13T22:53:35.256Z,51.6
2023-01-13T22:55:18.731Z,51.6
2023-01-13T22:57:02.064Z,51.6
2023-01-13T22:58:45.760Z,51.7
2023-01-13T23:00:29.161Z,51.7
2023-01-13T23:02:12.551Z,51.7
2023-01-13T23:03:55.951Z,51.7
2023-01-13T23:05:39.355Z,51.6
2023-01-13T23:07:22.732Z,51.7
2023-01-13T23:09:06.131Z,51.7
2023-01-13T23:10:49.539Z,51.7
2023-01-13T23:12:32.995Z,51.7
2023-01-13T23:15:59.465Z,51.8
2023-01-13T23:17:42.784Z,51.8
2023-01-13T23:19:26.190Z,51.8
2023-01-13T23:22:52.990Z,51.8
2023-01-13T23:24:36.369Z,51.7
2023-01-13T23:26:19.820Z,51.6
2023-01-13T23:28:03.203Z,51.7
2023-01-13T23:31:29.657Z,51.7
2023-01-13T23:33:13.063Z,51.7
2023-01-13T23:34:56.434Z,51.7
2023-01-13T23:36:39.885Z,51.7
2023-01-13T23:38:23.236Z,51.7
2023-01-13T23:40:06.626Z,51.7
2023-01-13T23:41:50.030Z,51.6
2023-01-13T23:43:33.408Z,51.7
2023-01-13T23:48:42.662Z,51.7
2023-01-13T23:50:26.060Z,51.7
2023-01-13T23:52:09.459Z,51.8
2023-01-13T23:53:52.849Z,51.7
2023-01-13T23:55:36.317Z,51.7
2023-01-13T23:57:19.755Z,51.7
2023-01-13T23:59:03.053Z,51.8
